Time;durP1;ratioP1;P1;durP2;ratioP2;P2;SDS_P1;SDS_P2;PMS_P1;PMS_P2;Temp;Humidity;BMP_temperature;BMP_pressure;BME280_temperature;BME280_humidity;BME280_pressure;Samples;Min_cycle;Max_cycle;Signal;HPM_P1;HPM_P2
2022/09/25 00:04:43;;;;;;;20.70;13.45;;;;;;;6.33;80.50;97952.38;10290907;28;20136;-63
2022/09/25 00:09:42;;;;;;;24.23;15.30;;;;;;;6.21;81.21;97923.81;10290257;28;20042;-63
2022/09/25 00:14:40;;;;;;;26.90;18.85;;;;;;;6.29;81.43;97955.75;10290552;28;20036;-63
2022/09/25 00:19:51;;;;;;;29.73;17.55;;;;;;;5.85;82.74;97923.94;10291170;28;20025;-63
2022/09/25 00:24:50;;;;;;;27.60;18.13;;;;;;;6.07;82.73;97945.84;10298579;28;20069;-63
2022/09/25 00:29:49;;;;;;;26.00;16.00;;;;;;;5.94;82.58;97945.59;10298220;28;20424;-63
2022/09/25 00:34:48;;;;;;;22.40;15.50;;;;;;;5.91;83.30;97940.41;10297718;28;20451;-63
2022/09/25 00:39:47;;;;;;;22.20;14.88;;;;;;;5.97;82.78;97958.53;10297477;28;20033;-63
2022/09/25 00:44:56;;;;;;;22.35;15.68;;;;;;;5.86;83.34;97934.28;10297361;28;20423;-63
2022/09/25 00:49:57;;;;;;;19.88;14.85;;;;;;;5.72;83.55;97928.84;10296687;28;20061;-63
2022/09/25 00:55:01;;;;;;;21.52;14.77;;;;;;;5.73;83.17;97935.72;10297145;28;20069;-63
2022/09/25 01:00:08;;;;;;;24.17;16.00;;;;;;;5.74;83.20;97927.19;10296759;28;20065;-63
2022/09/25 01:05:15;;;;;;;24.35;16.83;;;;;;;5.71;83.29;97924.53;10296308;28;20062;-64
2022/09/25 01:10:16;;;;;;;26.88;18.10;;;;;;;5.65;83.63;97920.94;10311346;28;20579;-63
2022/09/25 01:15:23;;;;;;;27.65;18.45;;;;;;;5.62;83.24;97921.75;10296191;28;20088;-63
2022/09/25 01:20:50;;;;;;;26.20;16.88;;;;;;;5.59;83.49;97923.41;10295787;28;20065;-63
2022/09/25 01:26:33;;;;;;;22.88;14.60;;;;;;;5.53;83.47;97919.88;10296125;28;20080;-63
2022/09/25 01:31:41;;;;;;;22.92;14.32;;;;;;;5.49;83.71;97928.34;10289224;28;20077;-63
2022/09/25 01:36:48;;;;;;;25.10;15.98;;;;;;;5.45;83.87;97931.69;10295749;28;20120;-63
2022/09/25 01:41:56;;;;;;;24.25;15.73;;;;;;;5.42;83.66;97926.50;10295191;28;20464;-63
2022/09/25 01:47:04;;;;;;;27.03;16.13;;;;;;;5.37;84.85;97925.53;10295065;28;20145;-63
2022/09/25 01:52:09;;;;;;;25.02;16.20;;;;;;;5.24;84.87;97908.06;10294688;28;20072;-63
2022/09/25 01:57:20;;;;;;;25.02;16.45;;;;;;;5.24;84.70;97914.06;10294412;28;20076;-63
2022/09/25 02:02:24;;;;;;;25.17;17.15;;;;;;;5.07;85.35;97893.13;10294434;28;20069;-63
2022/09/25 02:07:29;;;;;;;23.23;15.95;;;;;;;5.08;85.65;97915.41;10294345;28;20085;-63
2022/09/25 02:12:42;;;;;;;22.75;14.93;;;;;;;5.18;85.30;97919.09;10309152;28;20509;-63
2022/09/25 02:23:20;;;;;;;22.98;15.00;;;;;;;5.15;85.14;97931.88;10295015;28;20065;-63
2022/09/25 02:28:19;;;;;;;24.52;16.02;;;;;;;4.80;85.20;97885.59;10292545;28;20077;-63
2022/09/25 02:33:17;;;;;;;24.52;15.90;;;;;;;4.95;84.97;97918.56;10293318;28;20062;-63
2022/09/25 02:38:17;;;;;;;27.10;16.73;;;;;;;4.79;85.21;97895.84;10293086;28;20495;-63
2022/09/25 02:44:00;;;;;;;28.58;17.08;;;;;;;4.86;85.25;97920.88;10292914;28;20152;-63
2022/09/25 02:49:02;;;;;;;25.77;16.85;;;;;;;4.78;85.85;97933.50;10242241;28;20077;-63
2022/09/25 02:54:12;;;;;;;23.92;15.45;;;;;;;4.70;86.24;97932.47;10291556;28;20123;-63
2022/09/25 02:59:24;;;;;;;24.77;14.88;;;;;;;4.81;86.01;97935.31;10292677;28;20073;-63
2022/09/25 03:04:26;;;;;;;22.42;14.27;;;;;;;4.58;85.65;97901.34;10292242;28;20485;-63
2022/09/25 03:09:28;;;;;;;21.73;14.50;;;;;;;4.62;86.01;97906.59;10291747;28;20473;-63
2022/09/25 03:14:27;;;;;;;21.67;13.38;;;;;;;4.33;85.97;97869.00;10292105;28;20536;-63
2022/09/25 03:19:28;;;;;;;21.90;13.80;;;;;;;4.59;85.83;97915.91;10291779;28;20061;-63
2022/09/25 03:24:27;;;;;;;23.38;14.52;;;;;;;4.68;86.06;97929.84;10292031;28;20474;-63
2022/09/25 03:29:29;;;;;;;22.25;14.60;;;;;;;4.67;86.04;97917.84;10291354;28;20080;-63
2022/09/25 03:34:28;;;;;;;21.33;14.20;;;;;;;4.71;85.76;97914.53;10291274;28;20073;-63
2022/09/25 03:39:27;;;;;;;23.52;15.65;;;;;;;4.89;85.64;97926.06;10291307;28;20041;-63
2022/09/25 03:44:26;;;;;;;20.50;14.02;;;;;;;4.94;85.80;97932.22;10291138;28;20528;-63
2022/09/25 03:49:25;;;;;;;20.65;14.35;;;;;;;4.98;85.75;97934.06;10290284;28;20148;-63
2022/09/25 03:54:23;;;;;;;19.30;14.35;;;;;;;5.02;85.43;97925.59;10290891;28;20033;-63
2022/09/25 03:59:23;;;;;;;26.25;14.75;;;;;;;4.81;85.80;97904.47;10300572;28;20133;-63
2022/09/25 04:04:22;;;;;;;32.05;19.42;;;;;;;4.62;86.94;97933.97;10317604;28;20516;-63
2022/09/25 04:09:21;;;;;;;32.72;18.05;;;;;;;4.57;86.38;97926.16;10301013;28;20085;-63
2022/09/25 04:14:20;;;;;;;34.63;18.38;;;;;;;4.42;86.28;97930.91;10301191;28;20065;-63
2022/09/25 04:19:18;;;;;;;29.10;18.40;;;;;;;4.46;85.83;97932.72;10299634;28;20128;-63
2022/09/25 04:29:36;;;;;;;31.90;18.30;;;;;;;4.56;85.90;97934.69;10301948;28;20390;-63
2022/09/25 04:34:35;;;;;;;27.85;16.52;;;;;;;4.43;85.78;97922.34;10300918;28;20072;-63
2022/09/25 04:39:33;;;;;;;24.23;15.02;;;;;;;4.57;86.14;97944.16;10300970;28;20108;-63
2022/09/25 04:44:32;;;;;;;24.40;14.90;;;;;;;4.49;85.81;97919.94;10300638;28;20117;-63
2022/09/25 04:49:31;;;;;;;24.58;15.55;;;;;;;4.66;86.15;97931.50;10307875;28;20052;-63
2022/09/25 04:54:30;;;;;;;27.77;17.33;;;;;;;4.91;85.90;97950.13;10298196;28;20465;-63
2022/09/25 04:59:29;;;;;;;26.45;16.60;;;;;;;4.98;85.80;97949.47;10297402;28;20065;-63
2022/09/25 05:04:28;;;;;;;37.60;22.30;;;;;;;5.08;85.34;97946.28;10293617;28;20119;-63
2022/09/25 05:09:27;;;;;;;33.25;22.92;;;;;;;4.45;85.18;97865.03;10293212;28;20052;-63
2022/09/25 05:14:26;;;;;;;27.50;17.85;;;;;;;4.86;85.20;97926.00;10295432;28;20073;-64
2022/09/25 05:19:26;;;;;;;29.38;18.23;;;;;;;5.04;84.78;97943.59;10294176;28;20040;-63
2022/09/25 05:24:25;;;;;;;32.58;19.70;;;;;;;5.16;84.59;97943.91;10292880;28;20070;-63
2022/09/25 05:29:24;;;;;;;26.88;20.33;;;;;;;5.39;84.41;97941.88;10294663;28;20073;-63
2022/09/25 05:34:23;;;;;;;28.67;21.77;;;;;;;5.34;84.00;97881.69;10293403;28;20034;-64
2022/09/25 05:39:22;;;;;;;29.83;22.73;;;;;;;5.61;83.86;97885.69;10293480;28;20046;-62
2022/09/25 05:44:23;;;;;;;30.98;22.63;;;;;;;6.07;82.92;97932.97;10294311;28;20141;-62
2022/09/25 05:49:22;;;;;;;35.63;24.08;;;;;;;6.22;82.96;97911.78;10292164;28;20058;-62
2022/09/25 05:54:21;;;;;;;38.38;24.45;;;;;;;6.21;82.12;97926.41;10293203;28;20018;-62
2022/09/25 05:59:20;;;;;;;32.50;22.80;;;;;;;6.32;81.77;97914.56;10293786;28;20033;-62
2022/09/25 06:04:19;;;;;;;30.90;19.00;;;;;;;6.60;81.43;97940.84;10293386;28;20141;-62
2022/09/25 06:09:19;;;;;;;21.98;16.13;;;;;;;6.27;82.92;97944.53;10293514;28;20497;-64
2022/09/25 06:14:19;;;;;;;25.00;16.38;;;;;;;6.13;83.63;97912.47;10292502;28;20073;-64
2022/09/25 06:19:18;;;;;;;25.70;17.05;;;;;;;6.40;83.39;97918.16;10293051;28;20072;-64
2022/09/25 06:24:17;;;;;;;23.70;17.92;;;;;;;6.62;83.68;97936.56;10307714;28;20070;-64
2022/09/25 06:29:16;;;;;;;27.17;17.23;;;;;;;6.52;83.71;97911.47;10292333;28;20029;-63
2022/09/25 06:34:15;;;;;;;25.13;18.00;;;;;;;6.60;83.46;97930.53;10291932;28;20072;-64
2022/09/25 06:39:13;;;;;;;26.90;18.02;;;;;;;6.61;84.22;97940.00;10292140;28;20038;-63
2022/09/25 06:44:12;;;;;;;30.42;20.52;;;;;;;6.71;84.71;97949.63;10292491;28;20140;-64
2022/09/25 06:49:12;;;;;;;26.60;19.83;;;;;;;6.96;84.16;97935.44;10291440;28;20061;-64
2022/09/25 06:54:11;;;;;;;;;;;;;;;7.22;83.35;97948.75;10292134;28;20116;-62
2022/09/25 06:59:10;;;;;;;28.83;20.55;;;;;;;7.35;83.41;97918.81;10293616;28;19920;-62
2022/09/25 07:04:09;;;;;;;30.00;21.13;;;;;;;7.69;82.99;97918.47;10309571;28;20092;-63
2022/09/25 07:09:07;;;;;;;25.48;19.65;;;;;;;8.00;82.34;97936.06;10292961;28;20049;-63
2022/09/25 07:14:08;;;;;;;30.98;22.63;;;;;;;8.33;81.05;97945.06;10293356;28;20037;-62
2022/09/25 07:19:08;;;;;;;32.60;22.73;;;;;;;8.44;79.79;97907.25;10293277;28;20069;-64
2022/09/25 07:24:07;;;;;;;34.72;20.65;;;;;;;9.05;78.51;97931.94;10294950;28;20068;-64
2022/09/25 07:29:06;;;;;;;;;;;;;;;9.38;77.70;97933.94;10294839;28;20069;-64
2022/09/25 07:34:08;;;;;;;32.10;18.92;;;;;;;9.71;75.75;97922.91;10294328;28;19952;-64
2022/09/25 07:39:07;;;;;;;29.50;19.75;;;;;;;10.09;72.52;97926.50;10294469;28;20068;-64
2022/09/25 07:44:06;;;;;;;26.40;19.77;;;;;;;10.48;72.20;97915.38;10294309;28;20461;-65
2022/09/25 07:49:06;;;;;;;22.15;17.40;;;;;;;10.79;71.06;97905.03;10309439;28;20041;-64
2022/09/25 07:54:05;;;;;;;20.67;16.10;;;;;;;11.16;68.64;97907.66;10294266;28;20069;-63
2022/09/25 07:59:04;;;;;;;22.05;16.35;;;;;;;11.57;66.56;97898.91;10291932;28;20069;-63
2022/09/25 08:04:03;;;;;;;25.17;17.63;;;;;;;12.05;64.76;97892.69;10291098;28;20069;-64
2022/09/25 08:09:02;;;;;;;23.52;16.88;;;;;;;12.29;63.16;97842.28;10290466;28;20053;-64
2022/09/25 08:14:01;;;;;;;26.02;17.92;;;;;;;12.84;60.82;97853.19;10290431;28;20065;-64
2022/09/25 08:19:00;;;;;;;14.20;10.25;;;;;;;13.16;58.62;97834.63;10305606;28;20131;-63
2022/09/25 08:24:00;;;;;;;10.35;6.40;;;;;;;13.59;55.81;97847.25;10290363;28;20036;-63
2022/09/25 08:28:59;;;;;;;10.70;6.20;;;;;;;14.14;53.22;97853.50;10290305;28;20505;-63
2022/09/25 08:33:58;;;;;;;7.88;5.82;;;;;;;14.57;51.00;97826.78;10289722;28;20069;-63
2022/09/25 08:38:57;;;;;;;10.02;6.28;;;;;;;15.11;48.44;97837.22;10305725;28;20042;-63
2022/09/25 08:44:02;;;;;;;8.88;5.85;;;;;;;15.62;47.95;97804.84;10295634;28;20065;-63
2022/09/25 08:49:02;;;;;;;12.15;6.43;;;;;;;16.24;45.89;97799.19;10297208;28;20073;-63
2022/09/25 08:54:03;;;;;;;9.50;6.18;;;;;;;16.79;44.24;97795.22;10297125;28;20068;-64
2022/09/25 08:59:27;;;;;;;6.43;4.97;;;;;;;17.31;42.45;97790.41;10297354;28;20523;-63
2022/09/25 09:04:30;;;;;;;5.25;3.97;;;;;;;17.74;41.55;97786.56;10296642;28;20061;-63
2022/09/25 09:09:39;;;;;;;6.03;3.08;;;;;;;18.21;38.95;97780.81;10296760;28;20085;-64
2022/09/25 09:14:43;;;;;;;4.50;3.17;;;;;;;18.79;38.01;97777.19;10296172;28;20066;-63
2022/09/25 09:19:58;;;;;;;4.32;2.97;;;;;;;19.21;36.87;97775.75;10296067;28;20068;-63
2022/09/25 09:25:17;;;;;;;3.97;3.17;;;;;;;19.52;34.93;97770.25;10296114;28;20057;-64
2022/09/25 09:30:30;;;;;;;5.45;3.38;;;;;;;19.84;34.14;97766.44;10295535;28;20080;-64
2022/09/25 09:35:38;;;;;;;4.88;2.90;;;;;;;20.11;33.23;97758.38;10310671;28;20128;-64
2022/09/25 09:40:46;;;;;;;3.95;3.42;;;;;;;20.39;33.36;97752.84;10295162;28;20061;-64
2022/09/25 09:45:57;;;;;;;3.90;3.20;;;;;;;20.55;32.32;97732.03;10295131;28;20505;-65
2022/09/25 09:51:06;;;;;;;4.18;3.22;;;;;;;20.80;31.77;97726.59;10294653;28;20065;-64
2022/09/25 09:56:13;;;;;;;4.18;2.80;;;;;;;21.09;31.25;97732.38;10294060;28;20084;-63
2022/09/25 10:01:16;;;;;;;3.97;3.00;;;;;;;21.28;30.31;97735.09;10297224;28;20061;-63
2022/09/25 10:06:16;;;;;;;2.80;2.60;;;;;;;21.32;30.26;97720.84;10297356;28;20081;-63
2022/09/25 10:11:19;;;;;;;3.10;2.78;;;;;;;21.41;30.05;97723.06;10312748;28;20104;-63
2022/09/25 10:16:23;;;;;;;5.28;2.88;;;;;;;21.56;29.67;97726.78;10297096;28;20072;-61
2022/09/25 10:21:25;;;;;;;3.17;2.60;;;;;;;21.63;29.22;97717.66;10312365;28;20243;-62
2022/09/25 10:26:24;;;;;;;4.60;2.88;;;;;;;21.72;29.34;97721.66;10296712;28;20036;-62
2022/09/25 10:31:37;;;;;;;3.33;2.47;;;;;;;21.85;28.93;97722.81;10295325;28;20038;-62
2022/09/25 10:36:46;;;;;;;4.07;2.60;;;;;;;21.95;29.30;97705.59;10296352;28;20457;-62
2022/09/25 10:41:46;;;;;;;3.63;2.60;;;;;;;22.11;28.53;97710.19;10296317;28;20049;-63
2022/09/25 10:52:06;;;;;;;3.83;2.70;;;;;;;22.46;26.37;97687.28;10294477;28;20069;-64
2022/09/25 10:57:37;;;;;;;4.28;2.72;;;;;;;22.75;26.99;97684.97;10293564;28;20066;-64
2022/09/25 11:02:39;;;;;;;4.60;2.90;;;;;;;22.96;27.89;97664.50;10288426;28;20069;-64
2022/09/25 11:07:38;;;;;;;2.45;2.25;;;;;;;23.02;25.95;97653.56;10287801;28;20127;-64
2022/09/25 11:12:38;;;;;;;4.03;2.65;;;;;;;23.17;24.98;97658.03;10289610;28;20033;-64
2022/09/25 11:17:42;;;;;;;2.60;2.40;;;;;;;23.18;25.43;97654.44;10304808;28;20077;-64
2022/09/25 11:22:48;;;;;;;3.85;2.80;;;;;;;23.25;26.48;97654.13;10288992;28;20062;-64
2022/09/25 11:27:53;;;;;;;3.35;2.83;;;;;;;23.25;24.77;97660.28;10289611;28;20501;-64
2022/09/25 11:33:16;;;;;;;3.17;2.55;;;;;;;23.08;25.44;97587.06;10303836;28;20073;-64
2022/09/25 11:41:10;;;;;;;2.90;2.50;;;;;;;23.41;25.73;97645.25;10288647;28;20492;-64
2022/09/25 11:44:18;;;;;;;2.80;2.25;;;;;;;23.37;25.74;97648.16;10289251;28;20135;-64
2022/09/25 11:49:26;;;;;;;2.97;2.67;;;;;;;23.34;26.02;97643.88;10289804;28;20446;-63
2022/09/25 11:54:25;;;;;;;3.00;2.60;;;;;;;23.42;25.78;97644.34;10290613;28;20068;-63
2022/09/25 12:00:08;;;;;;;4.05;2.92;;;;;;;23.41;25.65;97633.81;10290752;28;20312;-63
2022/09/25 12:05:17;;;;;;;4.88;2.47;;;;;;;23.51;25.46;97629.75;10279005;28;20077;-64
2022/09/25 12:10:28;;;;;;;4.60;2.88;;;;;;;23.59;25.18;97627.53;10290124;28;20456;-63
2022/09/25 12:15:36;;;;;;;2.80;2.50;;;;;;;23.70;25.27;97632.25;10289434;28;20538;-63
2022/09/25 12:20:59;;;;;;;4.45;3.00;;;;;;;23.78;24.78;97627.38;10296827;28;20180;-63
2022/09/25 12:26:11;;;;;;;4.80;2.67;;;;;;;23.79;25.17;97621.09;10298053;28;20077;-63
2022/09/25 12:31:25;;;;;;;6.03;2.97;;;;;;;23.85;24.85;97606.66;10297952;28;20069;-63
2022/09/25 12:36:39;;;;;;;3.13;2.30;;;;;;;23.69;24.84;97569.59;10296815;28;20073;-63
2022/09/25 12:41:54;;;;;;;3.92;2.92;;;;;;;23.91;25.05;97595.72;10291803;28;20485;-64
2022/09/25 12:47:00;;;;;;;3.90;2.75;;;;;;;23.94;25.37;97598.19;10297561;28;20088;-64
2022/09/25 12:52:28;;;;;;;3.08;2.78;;;;;;;23.99;25.45;97589.97;10312779;28;20130;-64
2022/09/25 12:57:47;;;;;;;3.90;2.58;;;;;;;24.03;25.56;97584.41;10296858;28;20077;-64
2022/09/25 13:02:58;;;;;;;4.03;2.70;;;;;;;23.88;25.28;97574.69;10297110;28;20058;-64
2022/09/25 13:08:15;;;;;;;3.75;2.42;;;;;;;23.98;25.45;97570.56;10296701;28;20081;-64
2022/09/25 13:13:26;;;;;;;4.90;2.47;;;;;;;24.09;25.41;97556.69;10295447;28;20077;-64
2022/09/25 13:18:28;;;;;;;5.22;3.20;;;;;;;24.20;25.39;97564.03;10296267;28;20065;-64
2022/09/25 13:23:30;;;;;;;2.80;2.53;;;;;;;24.30;25.50;97553.72;10295376;28;20077;-64
2022/09/25 13:28:33;;;;;;;3.00;2.70;;;;;;;24.20;25.11;97522.47;10295806;28;20073;-64
2022/09/25 13:33:40;;;;;;;3.08;2.78;;;;;;;24.43;24.59;97544.94;10296099;28;20069;-64
2022/09/25 13:44:39;;;;;;;4.50;3.35;;;;;;;24.46;24.33;97534.16;10296170;28;20061;-64
2022/09/25 13:49:49;;;;;;;4.38;3.08;;;;;;;24.47;25.33;97519.94;10295246;28;20073;-64
2022/09/25 13:54:48;;;;;;;4.85;3.05;;;;;;;24.47;24.35;97519.94;10294918;28;20069;-64
2022/09/25 14:00:01;;;;;;;4.18;3.10;;;;;;;24.54;24.37;97520.41;10293973;28;20042;-64
2022/09/25 14:05:00;;;;;;;4.30;2.83;;;;;;;24.51;23.16;97502.03;10294802;28;20064;-64
2022/09/25 14:10:00;;;;;;;3.97;2.72;;;;;;;24.58;23.87;97510.47;10294386;28;20404;-64
2022/09/25 14:15:06;;;;;;;5.28;2.95;;;;;;;24.44;24.26;97508.66;10294359;28;20540;-64
2022/09/25 14:20:20;;;;;;;4.82;3.45;;;;;;;24.29;23.98;97510.47;10293896;28;20080;-64
2022/09/25 14:25:31;;;;;;;3.75;2.85;;;;;;;24.21;24.29;97507.41;10293876;28;20497;-64
2022/09/25 14:30:31;;;;;;;3.10;2.80;;;;;;;23.82;24.48;97447.88;10293705;28;20569;-64
2022/09/25 14:35:43;;;;;;;4.30;2.58;;;;;;;24.19;24.28;97506.63;10293465;28;20076;-64
2022/09/25 14:41:11;;;;;;;6.35;3.28;;;;;;;23.96;24.48;97497.38;10292023;28;20081;-64
2022/09/25 14:46:17;;;;;;;4.25;2.90;;;;;;;23.80;24.63;97493.00;10291879;28;20077;-64
2022/09/25 14:51:59;;;;;;;3.70;2.70;;;;;;;23.73;25.65;97496.09;10292836;28;20069;-64
2022/09/25 14:56:58;;;;;;;3.85;3.42;;;;;;;23.50;27.04;97495.63;10287457;28;20077;-64
2022/09/25 15:02:01;;;;;;;5.35;3.63;;;;;;;23.22;27.29;97486.56;10294256;28;20080;-62
2022/09/25 15:07:06;;;;;;;4.75;3.42;;;;;;;23.08;27.99;97488.28;10295764;28;20085;-63
2022/09/25 15:12:17;;;;;;;11.32;5.88;;;;;;;22.87;28.39;97501.75;10294372;28;20041;-63
2022/09/25 15:17:22;;;;;;;5.53;3.55;;;;;;;22.70;28.47;97500.00;10294358;28;20053;-63
2022/09/25 15:22:22;;;;;;;3.47;3.17;;;;;;;22.43;29.03;97488.25;10295192;28;20026;-64
2022/09/25 15:27:22;;;;;;;5.75;3.17;;;;;;;22.22;29.57;97477.03;10295158;28;20029;-64
2022/09/25 15:32:25;;;;;;;5.53;2.90;;;;;;;22.07;29.70;97489.28;10294888;28;20066;-64
2022/09/25 15:37:26;;;;;;;4.07;3.08;;;;;;;21.92;29.75;97502.31;10293842;28;20052;-64
2022/09/25 15:42:25;;;;;;;4.65;3.40;;;;;;;21.57;30.27;97474.16;10294673;28;20537;-63
2022/09/25 15:47:33;;;;;;;4.57;3.67;;;;;;;21.40;30.82;97488.19;10294768;28;20479;-64
2022/09/25 15:52:32;;;;;;;4.72;3.03;;;;;;;21.12;31.41;97485.09;10298283;28;20061;-65
2022/09/25 15:57:32;;;;;;;6.90;3.78;;;;;;;20.84;32.33;97488.16;10302963;28;20068;-63
2022/09/25 16:08:23;;;;;;;6.22;3.20;;;;;;;20.17;33.63;97489.41;10298843;28;20089;-63
2022/09/25 16:13:24;;;;;;;6.40;3.30;;;;;;;19.87;34.33;97484.53;10298814;28;20066;-63
2022/09/25 16:18:29;;;;;;;5.68;3.08;;;;;;;19.59;34.99;97473.47;10298500;28;20120;-63
2022/09/25 16:23:30;;;;;;;4.45;3.08;;;;;;;19.40;35.40;97482.09;10297539;28;20065;-63
2022/09/25 16:28:34;;;;;;;5.07;3.28;;;;;;;19.27;35.65;97490.53;10298196;28;20072;-63
2022/09/25 16:33:37;;;;;;;4.88;3.28;;;;;;;19.00;36.20;97483.69;10297972;28;20065;-63
2022/09/25 16:38:40;;;;;;;8.07;3.55;;;;;;;18.80;36.64;97481.81;10297774;28;20572;-63
2022/09/25 16:43:39;;;;;;;5.40;3.67;;;;;;;18.62;37.08;97487.78;10291391;28;20061;-63
2022/09/25 16:48:40;;;;;;;5.47;3.40;;;;;;;18.51;37.49;97511.81;10296200;28;20070;-63
2022/09/25 16:53:39;;;;;;;4.82;3.50;;;;;;;18.26;37.64;97490.81;10295307;28;20591;-63
2022/09/25 16:58:38;;;;;;;3.92;3.53;;;;;;;18.19;38.29;97511.19;10292920;28;20069;-63
2022/09/25 17:03:48;;;;;;;4.13;3.40;;;;;;;17.76;37.85;97452.31;10294104;28;20030;-63
2022/09/25 17:08:48;;;;;;;6.18;3.40;;;;;;;18.12;38.04;97538.56;10293930;28;20085;-63
2022/09/25 17:13:49;;;;;;;6.13;3.80;;;;;;;18.09;37.52;97566.72;10307768;28;20116;-63
2022/09/25 17:18:48;;;;;;;10.43;6.50;;;;;;;18.07;37.69;97551.00;10293967;28;20505;-63
2022/09/25 17:23:47;;;;;;;7.80;4.07;;;;;;;18.09;38.16;97559.69;10293045;28;20066;-63
2022/09/25 17:28:46;;;;;;;6.03;4.18;;;;;;;17.96;38.59;97572.41;10309110;28;20111;-63
2022/09/25 17:33:48;;;;;;;5.38;4.00;;;;;;;17.78;38.76;97549.38;10292702;28;20091;-63
2022/09/25 17:38:47;;;;;;;4.80;3.50;;;;;;;17.56;39.02;97547.41;10293533;28;20061;-63
2022/09/25 17:43:46;;;;;;;4.95;3.40;;;;;;;17.50;39.48;97558.13;10291923;28;20041;-63
2022/09/25 17:48:46;;;;;;;5.53;3.80;;;;;;;17.40;39.27;97556.69;10292054;28;20516;-63
2022/09/25 17:53:47;;;;;;;5.13;3.00;;;;;;;17.38;39.22;97542.78;10293593;28;20068;-63
2022/09/25 17:58:47;;;;;;;4.35;3.50;;;;;;;17.39;39.48;97559.38;10307533;28;20077;-63
2022/09/25 18:03:48;;;;;;;5.38;3.47;;;;;;;17.14;39.30;97536.50;10290989;28;20523;-63
2022/09/25 18:08:47;;;;;;;5.63;3.70;;;;;;;17.15;39.64;97569.72;10291191;28;20073;-63
2022/09/25 18:13:46;;;;;;;10.55;6.38;;;;;;;16.95;41.47;97598.28;10291154;28;20068;-63
2022/09/25 18:24:03;;;;;;;11.27;7.18;;;;;;;16.26;43.43;97593.16;10287338;28;20065;-62
2022/09/25 18:29:02;;;;;;;11.00;7.40;;;;;;;16.15;44.38;97611.75;10291564;28;20493;-63
2022/09/25 18:34:02;;;;;;;;;;;;;;;15.92;44.63;97611.47;10290632;28;20070;-63
2022/09/25 18:39:01;;;;;;;;;;;;;;;15.70;45.18;97611.97;10291356;28;19956;-63
2022/09/25 18:44:00;;;;;;;10.17;7.40;;;;;;;15.32;46.63;97576.22;10290974;28;19909;-63
2022/09/25 18:48:59;;;;;;;11.88;6.82;;;;;;;15.28;46.47;97593.75;10291589;28;20062;-63
2022/09/25 18:53:59;;;;;;;9.82;6.57;;;;;;;15.19;46.83;97580.91;10285167;28;20066;-63
2022/09/25 18:58:58;;;;;;;8.57;5.95;;;;;;;14.83;47.03;97550.31;10305780;28;20139;-63
2022/09/25 19:03:57;;;;;;;11.98;6.68;;;;;;;14.80;47.61;97560.84;10290170;28;20500;-63
2022/09/25 19:08:57;;;;;;;;;;;;;;;14.81;48.73;97588.66;10289808;28;20112;-62
2022/09/25 19:13:55;;;;;;;26.20;15.70;;;;;;;14.50;49.63;97587.50;10289748;28;19917;-62
2022/09/25 19:18:54;;;;;;;28.40;15.93;;;;;;;14.41;50.20;97593.78;10290271;28;20034;-62
2022/09/25 19:23:53;;;;;;;;;;;;;;;14.33;50.63;97591.31;10282195;28;20497;-62
2022/09/25 19:28:53;;;;;;;23.02;16.42;;;;;;;14.10;51.52;97611.72;10290031;28;20032;-62
2022/09/25 19:33:54;;;;;;;25.13;16.73;;;;;;;14.01;51.62;97601.44;10287975;28;20092;-62
2022/09/25 19:38:53;;;;;;;17.30;13.15;;;;;;;13.36;52.79;97532.09;10281680;28;20077;-62
2022/09/25 19:43:56;;;;;;;14.13;10.77;;;;;;;13.85;52.11;97614.78;10289817;28;20069;-62
2022/09/25 19:48:55;;;;;;;16.10;10.93;;;;;;;13.49;52.87;97584.88;10289105;28;20065;-62
2022/09/25 19:53:53;;;;;;;11.70;9.55;;;;;;;13.56;53.04;97602.19;10288976;28;20923;-62
2022/09/25 19:58:53;;;;;;;15.70;11.05;;;;;;;13.30;54.62;97618.19;10288775;28;20501;-61
2022/09/25 20:03:54;;;;;;;14.57;10.80;;;;;;;13.20;54.42;97614.00;10292725;28;20488;-62
2022/09/25 20:08:59;;;;;;;14.57;10.48;;;;;;;12.59;55.75;97538.38;10307057;28;20535;-61
2022/09/25 20:14:01;;;;;;;14.70;11.30;;;;;;;12.90;56.03;97598.72;10292523;28;20069;-62
2022/09/25 20:19:04;;;;;;;15.27;11.00;;;;;;;12.83;55.92;97599.69;10293258;28;20531;-62
2022/09/25 20:24:06;;;;;;;12.57;9.73;;;;;;;12.49;57.98;97573.22;10307119;28;20134;-62
2022/09/25 20:29:08;;;;;;;16.05;10.65;;;;;;;12.50;57.90;97580.13;10293648;28;20096;-62
2022/09/25 20:34:13;;;;;;;19.42;12.13;;;;;;;12.51;58.60;97605.28;10292859;28;20461;-61
2022/09/25 20:39:12;;;;;;;15.18;10.50;;;;;;;12.42;58.78;97606.25;10297981;28;20025;-62
2022/09/25 20:44:11;;;;;;;;;;;;;;;12.33;59.90;97597.69;10301739;28;20033;-61
2022/09/25 20:49:10;;;;;;;20.00;13.90;;;;;;;12.24;59.56;97594.25;10300332;28;19910;-61
2022/09/25 20:54:09;;;;;;;18.42;14.38;;;;;;;12.10;60.52;97596.13;10300285;28;20473;-61
2022/09/25 20:59:09;;;;;;;;;;;;;;;12.14;61.23;97597.84;10314941;28;20085;-62
2022/09/25 21:04:09;;;;;;;21.50;17.33;;;;;;;11.86;62.51;97571.22;10296411;28;20293;-61
2022/09/25 21:09:28;;;;;;;;;;;;;;;11.97;61.83;97584.13;10297639;28;20529;-62
2022/09/25 21:14:27;;;;;;;21.58;16.92;;;;;;;11.95;62.41;97585.88;10296340;28;19960;-61
2022/09/25 21:19:27;;;;;;;;;;;;;;;11.87;62.88;97585.94;10296821;28;20113;-61
2022/09/25 21:24:26;;;;;;;12.57;10.43;;;;;;;11.60;63.54;97558.47;10295140;28;19952;-62
2022/09/25 21:29:25;;;;;;;19.77;12.80;;;;;;;11.46;64.38;97545.56;10295259;28;20030;-61
2022/09/25 21:34:25;;;;;;;25.05;13.73;;;;;;;11.43;64.62;97541.28;10294387;28;20030;-62
2022/09/25 21:39:24;;;;;;;18.33;13.68;;;;;;;11.41;65.25;97547.34;10295021;28;20096;-61
2022/09/25 21:44:24;;;;;;;21.35;15.18;;;;;;;11.14;67.61;97551.00;10295478;28;20397;-61
2022/09/25 21:49:23;;;;;;;21.98;16.10;;;;;;;10.99;67.44;97558.00;10294133;28;20061;-62
2022/09/25 21:54:22;;;;;;;20.90;15.20;;;;;;;10.85;67.61;97554.59;10295058;28;20140;-61
2022/09/25 21:59:21;;;;;;;21.10;15.93;;;;;;;10.86;67.41;97534.69;10294384;28;20038;-62
2022/09/25 22:04:20;;;;;;;;;;;;;;;10.76;68.50;97549.47;10294490;28;20057;-62
2022/09/25 22:09:21;;;;;;;20.08;14.38;;;;;;;10.75;69.76;97534.75;10293803;28;19968;-62
2022/09/25 22:14:20;;;;;;;19.83;14.93;;;;;;;10.45;70.36;97500.31;10292706;28;20842;-62
2022/09/25 22:19:25;;;;;;;19.98;14.27;;;;;;;10.69;69.71;97524.41;10293333;28;20072;-62
2022/09/25 22:24:25;;;;;;;17.60;13.60;;;;;;;10.66;70.62;97539.97;10290122;28;20061;-62
2022/09/25 22:29:24;;;;;;;20.35;14.02;;;;;;;10.52;70.58;97490.72;10290286;28;20061;-62
2022/09/25 22:34:25;;;;;;;;;;;;;;;10.80;70.65;97543.38;10291604;28;20069;-62
2022/09/25 22:39:24;;;;;;;27.35;19.67;;;;;;;10.63;71.45;97520.09;10293093;28;20385;-62
2022/09/25 22:44:23;;;;;;;24.60;17.77;;;;;;;10.60;70.66;97523.56;10293472;28;20069;-63
2022/09/25 22:49:22;;;;;;;23.52;15.90;;;;;;;10.68;70.38;97538.25;10292962;28;20077;-63
2022/09/25 22:54:21;;;;;;;20.38;15.05;;;;;;;10.47;71.19;97513.25;10292309;28;20030;-63
2022/09/25 22:59:20;;;;;;;19.77;13.65;;;;;;;10.41;71.83;97530.56;10293365;28;20037;-62
2022/09/25 23:04:21;;;;;;;19.70;14.25;;;;;;;10.46;71.86;97540.94;10296128;28;20099;-63
2022/09/25 23:09:24;;;;;;;19.80;14.25;;;;;;;10.43;72.29;97542.69;10295188;28;20042;-63
2022/09/25 23:14:25;;;;;;;20.08;13.75;;;;;;;10.27;73.04;97534.94;10295212;28;20037;-62
2022/09/25 23:19:25;;;;;;;20.25;13.80;;;;;;;9.98;73.69;97516.91;10294993;28;20462;-63
2022/09/25 23:24:25;;;;;;;17.45;12.63;;;;;;;10.06;74.40;97548.84;10295376;28;20026;-62
2022/09/25 23:29:24;;;;;;;21.10;12.32;;;;;;;10.16;73.67;97540.16;10295530;28;20068;-62
2022/09/25 23:34:23;;;;;;;15.93;12.02;;;;;;;10.23;73.44;97547.94;10294544;28;20061;-62
2022/09/25 23:39:22;;;;;;;16.80;12.52;;;;;;;10.31;73.09;97530.63;10295162;28;20036;-64
2022/09/25 23:44:21;;;;;;;12.95;10.70;;;;;;;10.44;72.90;97516.72;10294878;28;20037;-63
2022/09/25 23:49:20;;;;;;;15.07;10.20;;;;;;;10.36;73.61;97489.97;10294752;28;20061;-64
2022/09/25 23:54:19;;;;;;;13.75;9.57;;;;;;;10.48;73.57;97521.03;10294679;28;20038;-63
2022/09/25 23:59:18;;;;;;;10.57;7.65;;;;;;;10.44;73.06;97519.31;10293409;28;20113;-65
